createdAt,value
2018-07-23T00:02:13.962Z,99473.20
2018-07-23T00:04:44.078Z,99481.12
2018-07-23T00:07:14.306Z,99475.53
2018-07-23T00:09:44.588Z,99479.30
2018-07-23T00:12:14.818Z,99471.92
2018-07-23T00:14:44.859Z,99478.00
2018-07-23T00:17:15.111Z,99477.40
2018-07-23T00:19:48.091Z,99480.08
2018-07-23T00:22:18.257Z,99476.19
2018-07-23T00:24:48.501Z,99473.76
2018-07-23T00:27:18.643Z,99475.58
2018-07-23T00:29:48.732Z,99483.37
2018-07-23T00:32:18.693Z,99474.98
2018-07-23T00:34:49.206Z,99484.13
2018-07-23T00:37:19.347Z,99483.28
2018-07-23T00:39:49.415Z,99480.61
2018-07-23T00:42:19.645Z,99478.17
2018-07-23T00:44:49.707Z,99485.47
2018-07-23T00:47:19.774Z,99485.23
2018-07-23T00:49:49.963Z,99488.99
2018-07-23T00:52:20.123Z,99479.39
2018-07-23T00:54:50.301Z,99483.89
2018-07-23T00:57:20.462Z,99486.56
2018-07-23T00:59:50.872Z,99491.55
2018-07-23T01:02:21.040Z,99486.20
2018-07-23T01:04:51.169Z,99486.08
2018-07-23T01:07:21.090Z,99484.50
2018-07-23T01:09:51.623Z,99480.97
2018-07-23T01:12:29.615Z,99478.54
2018-07-23T01:14:59.534Z,99471.53
2018-07-23T01:17:29.668Z,99479.91
2018-07-23T01:20:00.591Z,99484.41
2018-07-23T01:22:30.694Z,99488.32
2018-07-23T01:25:00.889Z,99489.53
2018-07-23T01:27:30.948Z,99485.16
2018-07-23T01:30:01.214Z,99485.48
2018-07-23T01:32:31.282Z,99490.25
2018-07-23T01:35:01.504Z,99497.53
2018-07-23T01:37:31.622Z,99498.50
2018-07-23T01:40:01.785Z,99501.91
2018-07-23T01:42:32.005Z,99496.56
2018-07-23T01:45:02.165Z,99493.52
2018-07-23T01:47:32.597Z,99494.86
2018-07-23T01:50:02.777Z,99504.22
2018-07-23T01:52:32.942Z,99501.54
2018-07-23T01:55:03.060Z,99503.11
2018-07-23T01:57:33.507Z,99497.77
2018-07-23T02:00:03.461Z,99503.84
2018-07-23T02:02:34.209Z,99508.56
2018-07-23T02:05:04.745Z,99495.92
2018-07-23T02:07:34.884Z,99500.57
2018-07-23T02:10:05.028Z,99492.91
2018-07-23T02:12:35.161Z,99499.09
2018-07-23T02:15:05.151Z,99496.77
2018-07-23T02:17:35.111Z,99491.69
2018-07-23T02:20:05.863Z,99496.53
2018-07-23T02:22:35.952Z,99505.23
2018-07-23T02:25:06.084Z,99498.58
2018-07-23T02:27:36.210Z,99506.08
2018-07-23T02:30:07.054Z,99505.34
2018-07-23T02:32:37.155Z,99498.19
2018-07-23T02:35:07.437Z,99500.00
2018-07-23T02:37:37.534Z,99498.41
2018-07-23T02:40:08.710Z,99505.09
2018-07-23T02:42:38.779Z,99504.95
2018-07-23T02:45:12.902Z,99499.48
2018-07-23T02:47:43.177Z,99507.83
2018-07-23T02:50:13.344Z,99510.75
2018-07-23T02:52:43.431Z,99509.64
2018-07-23T02:55:13.540Z,99514.72
2018-07-23T02:57:59.666Z,99513.39
2018-07-23T03:00:29.794Z,99522.95
2018-07-23T03:02:59.874Z,99520.48
2018-07-23T03:05:31.112Z,99521.45
2018-07-23T03:08:01.148Z,99523.41
2018-07-23T03:10:31.420Z,99520.84
2018-07-23T03:13:01.421Z,99523.52
2018-07-23T03:15:31.696Z,99521.92
2018-07-23T03:18:01.755Z,99527.63
2018-07-23T03:20:31.930Z,99523.85
2018-07-23T03:23:02.073Z,99523.11
2018-07-23T03:25:32.146Z,99526.74
2018-07-23T03:28:02.338Z,99531.34
2018-07-23T03:30:32.457Z,99526.97
2018-07-23T03:33:02.586Z,99529.00
2018-07-23T03:35:32.921Z,99525.14
2018-07-23T03:38:03.171Z,99529.48
2018-07-23T03:40:33.207Z,99526.86
2018-07-23T03:43:03.144Z,99532.23
2018-07-23T03:45:33.977Z,99532.74
2018-07-23T03:48:04.030Z,99536.89
2018-07-23T03:50:34.102Z,99540.08
2018-07-23T03:53:04.272Z,99537.19
2018-07-23T03:55:34.663Z,99541.22
2018-07-23T03:58:04.844Z,99542.70
2018-07-23T04:00:34.885Z,99545.63
2018-07-23T04:03:05.116Z,99547.32
2018-07-23T04:05:35.269Z,99552.20
2018-07-23T04:08:05.363Z,99554.05
2018-07-23T04:13:21.621Z,99551.42
2018-07-23T04:15:51.832Z,99550.81
2018-07-23T04:18:21.792Z,99555.09
2018-07-23T04:20:51.944Z,99552.28
2018-07-23T04:23:22.810Z,99557.89
2018-07-23T04:25:52.903Z,99558.50
2018-07-23T04:28:22.956Z,99553.08
2018-07-23T04:30:53.084Z,99556.83
2018-07-23T04:33:23.358Z,99559.64
2018-07-23T04:35:53.418Z,99561.56
2018-07-23T04:38:23.535Z,99558.16
2018-07-23T04:40:53.430Z,99562.76
2018-07-23T04:43:23.843Z,99560.20
2018-07-23T04:45:53.890Z,99555.06
2018-07-23T04:48:23.992Z,99552.39
2018-07-23T04:50:54.376Z,99556.77
2018-07-23T04:53:24.652Z,99550.64
2018-07-23T04:55:54.944Z,99551.27
2018-07-23T04:58:24.874Z,99547.09
2018-07-23T05:00:55.027Z,99554.09
2018-07-23T05:03:24.936Z,99557.23
2018-07-23T05:05:55.341Z,99558.80
2018-07-23T05:08:25.537Z,99560.20
2018-07-23T05:10:55.776Z,99561.59
2018-07-23T05:13:25.832Z,99562.17
2018-07-23T05:15:55.859Z,99568.43
2018-07-23T05:18:25.993Z,99564.59
2018-07-23T05:20:56.213Z,99570.75
2018-07-23T05:23:26.705Z,99570.30
2018-07-23T05:25:57.075Z,99572.06
2018-07-23T05:28:26.968Z,99569.05
2018-07-23T05:30:57.058Z,99565.84
2018-07-23T05:33:27.050Z,99566.00
2018-07-23T05:35:57.083Z,99570.44
2018-07-23T05:38:28.089Z,99569.47
2018-07-23T05:40:58.067Z,99563.26
2018-07-23T05:43:27.992Z,99560.17
2018-07-23T05:45:58.133Z,99576.40
2018-07-23T05:48:28.144Z,99578.98
2018-07-23T05:50:58.438Z,99584.22
2018-07-23T05:53:28.665Z,99582.02
2018-07-23T05:55:58.553Z,99585.22
2018-07-23T05:58:28.629Z,99578.22
2018-07-23T06:00:58.935Z,99579.22
2018-07-23T06:03:29.248Z,99579.80
2018-07-23T06:05:59.498Z,99581.96
2018-07-23T06:08:29.428Z,99578.47
2018-07-23T06:10:59.500Z,99574.28
2018-07-23T06:13:29.615Z,99580.76
2018-07-23T06:15:59.830Z,99581.59
2018-07-23T06:18:30.287Z,99582.40
2018-07-23T06:21:00.415Z,99582.50
2018-07-23T06:23:31.634Z,99576.27
2018-07-23T06:26:01.805Z,99580.16
2018-07-23T06:28:32.050Z,99577.27
2018-07-23T06:31:02.268Z,99584.64
2018-07-23T06:33:32.607Z,99581.99
2018-07-23T06:36:02.644Z,99586.41
2018-07-23T06:38:33.031Z,99582.41
2018-07-23T06:41:02.980Z,99589.70
2018-07-23T06:43:33.177Z,99582.06
2018-07-23T06:46:03.476Z,99583.05
2018-07-23T06:48:34.872Z,99590.34
2018-07-23T06:51:05.032Z,99589.70
2018-07-23T06:53:35.227Z,99595.67
2018-07-23T06:56:05.396Z,99599.67
2018-07-23T06:58:35.491Z,99591.98
2018-07-23T07:01:05.598Z,99598.88
2018-07-23T07:03:35.629Z,99601.77
2018-07-23T07:06:06.042Z,99601.92
2018-07-23T07:08:36.300Z,99600.16
2018-07-23T07:11:06.534Z,99609.99
2018-07-23T07:13:37.713Z,99611.39
2018-07-23T07:16:08.733Z,99609.08
2018-07-23T07:18:39.016Z,99611.13
2018-07-23T07:21:09.373Z,99611.33
2018-07-23T07:23:39.747Z,99610.12
2018-07-23T07:26:09.887Z,99604.91
2018-07-23T07:28:39.889Z,99606.33
2018-07-23T07:31:09.958Z,99606.77
2018-07-23T07:33:40.108Z,99605.80
2018-07-23T07:36:10.279Z,99612.58
2018-07-23T07:38:40.570Z,99609.56
2018-07-23T07:41:11.049Z,99610.11
2018-07-23T07:43:41.166Z,99607.91
2018-07-23T07:46:11.377Z,99616.92
2018-07-23T07:48:41.605Z,99607.65
2018-07-23T07:51:11.685Z,99626.63
2018-07-23T07:53:41.857Z,99616.67
2018-07-23T07:56:12.144Z,99616.50
2018-07-23T07:58:42.520Z,99620.44
2018-07-23T08:01:12.723Z,99619.75
2018-07-23T08:03:42.851Z,99621.99
2018-07-23T08:06:13.001Z,99627.09
2018-07-23T08:08:43.462Z,99622.73
2018-07-23T08:11:13.714Z,99626.81
2018-07-23T08:13:46.716Z,99621.09
2018-07-23T08:16:16.954Z,99618.70
2018-07-23T08:18:47.235Z,99628.67
2018-07-23T08:21:17.397Z,99623.95
2018-07-23T08:23:47.688Z,99619.91
2018-07-23T08:26:18.166Z,99621.44
2018-07-23T08:28:48.570Z,99625.48
2018-07-23T08:31:18.837Z,99626.64
2018-07-23T08:33:49.018Z,99631.55
2018-07-23T08:36:19.303Z,99620.41
2018-07-23T08:38:49.626Z,99620.39
2018-07-23T08:41:19.824Z,99626.16
2018-07-23T08:43:50.426Z,99634.63
2018-07-23T08:46:21.544Z,99628.37
2018-07-23T08:48:51.948Z,99638.16
2018-07-23T08:51:22.208Z,99638.66
2018-07-23T08:53:52.286Z,99639.30
2018-07-23T08:56:22.439Z,99640.48
2018-07-23T08:58:52.485Z,99635.73
2018-07-23T09:01:30.546Z,99635.70
2018-07-23T09:04:00.665Z,99634.21
2018-07-23T09:06:30.754Z,99631.80
2018-07-23T09:09:01.204Z,99643.81
2018-07-23T09:11:31.225Z,99646.70
2018-07-23T09:14:02.244Z,99641.11
2018-07-23T09:16:32.583Z,99638.59
2018-07-23T09:19:02.809Z,99647.03
2018-07-23T09:21:36.279Z,99646.67
2018-07-23T09:24:06.588Z,99645.64
2018-07-23T09:26:37.092Z,99631.96
2018-07-23T09:29:07.398Z,99651.11
2018-07-23T09:31:37.524Z,99646.42
2018-07-23T09:34:07.740Z,99643.95
2018-07-23T09:36:37.795Z,99654.45
2018-07-23T09:39:10.197Z,99643.57
2018-07-23T09:41:40.545Z,99645.42
2018-07-23T09:44:10.989Z,99645.56
2018-07-23T09:46:41.137Z,99645.50
2018-07-23T09:49:11.128Z,99640.44
2018-07-23T09:51:41.860Z,99648.80
2018-07-23T09:54:11.997Z,99647.94
2018-07-23T09:56:43.429Z,99647.79
2018-07-23T09:59:13.843Z,99638.46
2018-07-23T10:01:43.965Z,99624.22
2018-07-23T10:04:14.274Z,99632.78
2018-07-23T10:06:44.622Z,99630.16
2018-07-23T10:09:15.885Z,99624.64
2018-07-23T10:11:45.838Z,99619.20
2018-07-23T10:14:16.046Z,99628.56
2018-07-23T10:16:46.255Z,99618.63
2018-07-23T10:19:16.256Z,99629.77
2018-07-23T10:21:46.418Z,99613.56
2018-07-23T10:24:16.670Z,99616.12
2018-07-23T10:26:46.939Z,99616.48
2018-07-23T10:29:17.200Z,99614.74
2018-07-23T10:31:47.281Z,99622.20
2018-07-23T10:34:19.290Z,99602.42
2018-07-23T10:36:49.585Z,99610.64
2018-07-23T10:39:19.610Z,99615.11
2018-07-23T10:41:49.776Z,99610.05
2018-07-23T10:44:19.660Z,99596.47
2018-07-23T10:46:50.722Z,99606.08
2018-07-23T10:49:20.716Z,99600.69
2018-07-23T10:51:50.939Z,99613.76
2018-07-23T10:54:21.120Z,99606.41
2018-07-23T10:56:51.310Z,99615.77
2018-07-23T10:59:21.743Z,99599.73
2018-07-23T11:01:51.732Z,99597.11
2018-07-23T11:04:21.953Z,99592.98
2018-07-23T11:06:52.164Z,99594.40
2018-07-23T11:09:22.480Z,99584.78
2018-07-23T11:11:53.617Z,99586.64
2018-07-23T11:14:24.898Z,99587.56
2018-07-23T11:16:55.781Z,99593.36
2018-07-23T11:19:27.007Z,99593.25
2018-07-23T11:21:57.231Z,99595.47
2018-07-23T11:24:27.396Z,99587.48
2018-07-23T11:26:57.701Z,99589.53
2018-07-23T11:29:27.653Z,99596.07
2018-07-23T11:31:57.875Z,99602.08
2018-07-23T11:34:28.254Z,99584.44
2018-07-23T11:36:58.394Z,99590.63
2018-07-23T11:39:28.613Z,99588.43
2018-07-23T11:41:58.549Z,99581.83
2018-07-23T11:44:28.790Z,99584.84
2018-07-23T11:46:58.628Z,99582.95
2018-07-23T11:49:29.852Z,99586.72
2018-07-23T11:51:59.809Z,99586.46
2018-07-23T11:54:31.102Z,99585.48
2018-07-23T11:57:02.578Z,99595.89
2018-07-23T11:59:32.956Z,99594.45
2018-07-23T12:02:06.176Z,99588.07
2018-07-23T12:04:36.515Z,99579.13
2018-07-23T12:07:07.013Z,99595.94
2018-07-23T12:09:37.207Z,99584.69
2018-07-23T12:12:07.857Z,99581.37
2018-07-23T12:14:39.337Z,99572.97
2018-07-23T12:17:09.404Z,99571.76
2018-07-23T12:19:39.640Z,99570.73
2018-07-23T12:22:09.829Z,99564.64
2018-07-23T12:24:40.032Z,99570.07
2018-07-23T12:27:10.193Z,99572.65
2018-07-23T12:29:40.085Z,99582.67
2018-07-23T12:32:10.559Z,99580.70
2018-07-23T12:34:40.596Z,99565.53
2018-07-23T12:37:10.879Z,99574.25
2018-07-23T12:39:41.019Z,99563.15
2018-07-23T12:42:10.939Z,99578.00
2018-07-23T12:44:41.009Z,99575.52
2018-07-23T12:47:12.027Z,99582.79
2018-07-23T12:49:42.325Z,99573.23
2018-07-23T12:52:12.186Z,99569.76
2018-07-23T12:54:42.282Z,99556.78
2018-07-23T12:57:12.243Z,99561.77
2018-07-23T12:59:42.492Z,99576.36
2018-07-23T13:02:12.747Z,99570.83
2018-07-23T13:04:42.836Z,99563.52
2018-07-23T13:07:13.009Z,99553.86
2018-07-23T13:09:43.134Z,99552.77
2018-07-23T13:12:13.327Z,99557.97
2018-07-23T13:14:43.550Z,99564.16
2018-07-23T13:17:14.081Z,99566.91
2018-07-23T13:19:44.125Z,99557.05
2018-07-23T13:22:15.812Z,99537.05
2018-07-23T13:24:45.834Z,99558.46
2018-07-23T13:27:16.127Z,99561.95
2018-07-23T13:29:48.141Z,99555.84
2018-07-23T13:32:18.280Z,99551.22
2018-07-23T13:34:48.638Z,99542.00
2018-07-23T13:37:18.934Z,99532.23
2018-07-23T13:39:49.296Z,99533.45
2018-07-23T13:42:19.417Z,99541.06
2018-07-23T13:44:49.598Z,99535.59
2018-07-23T13:47:19.975Z,99536.77
2018-07-23T13:49:49.756Z,99543.89
2018-07-23T13:52:20.155Z,99529.80
2018-07-23T13:54:50.375Z,99525.90
2018-07-23T13:57:21.540Z,99533.72
2018-07-23T13:59:51.956Z,99535.19
2018-07-23T14:02:22.910Z,99548.34
2018-07-23T14:04:53.500Z,99539.48
2018-07-23T14:07:23.680Z,99552.58
2018-07-23T14:09:53.815Z,99534.45
2018-07-23T14:12:24.681Z,99536.02
2018-07-23T14:14:54.667Z,99536.75
2018-07-23T14:17:24.944Z,99546.33
2018-07-23T14:19:55.336Z,99531.56
2018-07-23T14:22:25.636Z,99534.31
2018-07-23T14:24:55.946Z,99533.91
2018-07-23T14:27:26.308Z,99527.05
2018-07-23T14:29:56.519Z,99539.61
2018-07-23T14:32:26.788Z,99535.50
2018-07-23T14:34:56.928Z,99544.34
2018-07-23T14:37:27.247Z,99526.43
2018-07-23T14:39:57.509Z,99528.52
2018-07-23T14:42:27.630Z,99526.74
2018-07-23T14:44:58.080Z,99531.91
2018-07-23T14:47:28.198Z,99524.88
2018-07-23T14:49:59.379Z,99520.15
2018-07-23T14:52:29.514Z,99526.43
2018-07-23T14:54:59.741Z,99518.74
2018-07-23T14:57:29.725Z,99526.39
2018-07-23T15:00:00.212Z,99528.11
2018-07-23T15:02:30.436Z,99519.45
2018-07-23T15:05:00.688Z,99522.95
2018-07-23T15:07:30.817Z,99521.70
2018-07-23T15:10:01.050Z,99516.70
2018-07-23T15:12:31.368Z,99520.25
2018-07-23T15:15:01.321Z,99516.14
2018-07-23T15:17:31.595Z,99518.52
2018-07-23T15:20:01.623Z,99510.95
2018-07-23T15:22:31.982Z,99510.42
2018-07-23T15:25:02.155Z,99506.63
2018-07-23T15:27:32.428Z,99513.97
2018-07-23T15:30:02.709Z,99515.27
2018-07-23T15:32:33.198Z,99512.91
2018-07-23T15:35:03.352Z,99509.55
2018-07-23T15:37:33.186Z,99510.55
2018-07-23T15:40:04.821Z,99507.64
2018-07-23T15:42:35.102Z,99512.78
2018-07-23T15:45:05.513Z,99508.44
2018-07-23T15:47:35.556Z,99504.22
2018-07-23T15:50:05.972Z,99514.38
2018-07-23T15:52:36.238Z,99522.79
2018-07-23T15:55:06.402Z,99517.86
2018-07-23T15:57:36.577Z,99519.77
2018-07-23T16:00:07.238Z,99527.44
2018-07-23T16:02:37.471Z,99536.40
2018-07-23T16:05:07.866Z,99544.48
2018-07-23T16:07:38.190Z,99528.17
2018-07-23T16:10:09.240Z,99530.74
2018-07-23T16:12:39.356Z,99535.05
2018-07-23T16:15:09.887Z,99528.77
2018-07-23T16:17:40.118Z,99525.27
2018-07-23T16:20:10.539Z,99531.21
2018-07-23T16:22:41.599Z,99531.17
2018-07-23T16:25:11.839Z,99529.02
2018-07-23T16:27:43.106Z,99527.83
2018-07-23T16:30:13.211Z,99531.57
2018-07-23T16:32:44.312Z,99534.48
2018-07-23T16:35:14.772Z,99531.31
2018-07-23T16:37:45.869Z,99527.97
2018-07-23T16:40:16.145Z,99526.75
2018-07-23T16:42:46.216Z,99526.91
2018-07-23T16:45:17.303Z,99525.98
2018-07-23T16:47:47.530Z,99531.32
2018-07-23T16:50:17.664Z,99536.32
2018-07-23T16:52:48.118Z,99532.91
2018-07-23T16:55:18.256Z,99528.92
2018-07-23T16:57:48.200Z,99531.05
2018-07-23T17:00:18.398Z,99533.35
2018-07-23T17:02:48.396Z,99524.67
2018-07-23T17:05:18.755Z,99530.64
2018-07-23T17:07:48.928Z,99528.00
2018-07-23T17:10:20.182Z,99525.53
2018-07-23T17:12:50.463Z,99527.16
2018-07-23T17:15:20.485Z,99529.53
2018-07-23T17:17:50.793Z,99533.95
2018-07-23T17:20:21.193Z,99538.09
2018-07-23T17:22:51.345Z,99541.73
2018-07-23T17:25:21.150Z,99544.48
2018-07-23T17:27:51.217Z,99542.22
2018-07-23T17:30:21.290Z,99549.63
2018-07-23T17:32:51.497Z,99549.70
2018-07-23T17:35:21.701Z,99554.26
2018-07-23T17:37:51.971Z,99552.98
2018-07-23T17:40:22.283Z,99555.96
2018-07-23T17:42:52.554Z,99565.78
2018-07-23T17:45:22.839Z,99566.78
2018-07-23T17:47:53.105Z,99561.14
2018-07-23T17:50:23.566Z,99560.92
2018-07-23T17:52:53.801Z,99567.60
2018-07-23T17:55:23.841Z,99563.30
2018-07-23T17:57:53.979Z,99563.82
2018-07-23T18:00:24.383Z,99570.98
2018-07-23T18:02:54.434Z,99575.02
2018-07-23T18:05:24.761Z,99575.28
2018-07-23T18:07:54.984Z,99583.45
2018-07-23T18:10:24.893Z,99588.86
2018-07-23T18:12:55.121Z,99588.95
2018-07-23T18:15:25.148Z,99585.41
2018-07-23T18:17:55.304Z,99587.75
2018-07-23T18:20:25.479Z,99599.58
2018-07-23T18:22:55.352Z,99593.38
2018-07-23T18:25:25.641Z,99596.85
2018-07-23T18:27:56.698Z,99595.40
2018-07-23T18:30:26.854Z,99600.52
2018-07-23T18:32:56.933Z,99601.09
2018-07-23T18:35:27.082Z,99602.81
2018-07-23T18:37:57.227Z,99606.39
2018-07-23T18:40:27.354Z,99607.08
2018-07-23T18:42:57.474Z,99610.69
2018-07-23T18:45:27.839Z,99616.82
2018-07-23T18:47:58.096Z,99614.28
2018-07-23T18:50:28.171Z,99618.72
2018-07-23T18:52:58.619Z,99624.64
2018-07-23T18:55:29.156Z,99635.30
2018-07-23T18:57:59.421Z,99640.34
2018-07-23T19:00:29.332Z,99642.31
2018-07-23T19:02:59.532Z,99652.53
2018-07-23T19:05:29.711Z,99641.15
2018-07-23T19:07:59.972Z,99646.16
2018-07-23T19:10:30.055Z,99648.02
2018-07-23T19:13:00.426Z,99654.58
2018-07-23T19:15:30.579Z,99657.28
2018-07-23T19:18:00.848Z,99656.63
2018-07-23T19:20:31.062Z,99657.47
2018-07-23T19:23:01.411Z,99651.22
2018-07-23T19:25:31.759Z,99660.33
2018-07-23T19:28:02.922Z,99655.78
2018-07-23T19:30:33.110Z,99667.40
2018-07-23T19:33:03.525Z,99659.23
2018-07-23T19:35:33.836Z,99657.86
2018-07-23T19:38:05.027Z,99666.97
2018-07-23T19:40:35.372Z,99672.68
2018-07-23T19:43:05.839Z,99671.64
2018-07-23T19:45:35.989Z,99669.25
2018-07-23T19:48:06.410Z,99671.08
2018-07-23T19:50:36.591Z,99674.27
2018-07-23T19:53:06.845Z,99668.14
2018-07-23T19:55:37.140Z,99669.11
2018-07-23T19:58:07.253Z,99674.66
2018-07-23T20:00:37.646Z,99674.78
2018-07-23T20:03:08.928Z,99675.44
2018-07-23T20:05:39.132Z,99674.73
2018-07-23T20:08:09.657Z,99681.98
2018-07-23T20:10:40.848Z,99677.58
2018-07-23T20:13:11.178Z,99681.32
2018-07-23T20:15:41.366Z,99675.52
2018-07-23T20:18:11.529Z,99689.92
2018-07-23T20:20:41.789Z,99679.42
2018-07-23T20:23:11.854Z,99673.09
2018-07-23T20:25:42.183Z,99685.35
2018-07-23T20:28:12.154Z,99679.86
2018-07-23T20:30:42.625Z,99683.85
2018-07-23T20:33:12.850Z,99681.45
2018-07-23T20:35:44.084Z,99681.44
2018-07-23T20:38:14.225Z,99686.63
2018-07-23T20:40:44.440Z,99686.27
2018-07-23T20:43:14.735Z,99682.38
2018-07-23T20:45:45.809Z,99683.17
2018-07-23T20:48:15.889Z,99676.73
2018-07-23T20:50:46.380Z,99678.91
2018-07-23T20:53:16.492Z,99682.86
2018-07-23T20:55:47.355Z,99683.95
2018-07-23T20:58:17.613Z,99686.44
2018-07-23T21:00:47.960Z,99679.97
2018-07-23T21:03:18.042Z,99682.31
2018-07-23T21:05:48.484Z,99680.77
2018-07-23T21:08:18.883Z,99681.70
2018-07-23T21:10:49.420Z,99688.41
2018-07-23T21:13:19.692Z,99688.84
2018-07-23T21:15:50.220Z,99687.29
2018-07-23T21:18:20.491Z,99683.33
2018-07-23T21:20:50.432Z,99683.33
2018-07-23T21:23:20.859Z,99684.30
2018-07-23T21:25:52.042Z,99688.63
2018-07-23T21:28:22.324Z,99689.27
2018-07-23T21:30:52.305Z,99690.05
2018-07-23T21:33:22.548Z,99689.13
2018-07-23T21:35:52.669Z,99695.86
2018-07-23T21:38:22.856Z,99686.13
2018-07-23T21:40:53.632Z,99697.47
2018-07-23T21:43:23.808Z,99691.41
2018-07-23T21:45:54.172Z,99694.92
2018-07-23T21:48:24.419Z,99688.41
2018-07-23T21:50:54.611Z,99687.06
2018-07-23T21:53:24.599Z,99686.77
2018-07-23T21:55:54.641Z,99682.41
2018-07-23T21:58:24.924Z,99682.70
2018-07-23T22:00:55.057Z,99683.05
2018-07-23T22:03:25.066Z,99686.30
2018-07-23T22:05:55.476Z,99685.48
2018-07-23T22:08:25.661Z,99678.69
2018-07-23T22:10:55.922Z,99679.74
2018-07-23T22:13:26.102Z,99680.33
2018-07-23T22:15:56.320Z,99683.23
2018-07-23T22:18:26.493Z,99684.80
2018-07-23T22:21:03.072Z,99683.59
2018-07-23T22:23:33.397Z,99683.23
2018-07-23T22:26:03.314Z,99683.05
2018-07-23T22:28:33.444Z,99679.30
2018-07-23T22:31:04.776Z,99680.28
2018-07-23T22:33:34.947Z,99675.17
2018-07-23T22:36:05.290Z,99674.95
2018-07-23T22:38:35.478Z,99673.48
2018-07-23T22:41:05.591Z,99675.72
2018-07-23T22:43:35.851Z,99676.80
2018-07-23T22:46:05.851Z,99673.89
2018-07-23T22:48:36.063Z,99673.53
2018-07-23T22:51:06.265Z,99676.93
2018-07-23T22:53:36.394Z,99674.73
2018-07-23T22:56:06.685Z,99676.66
2018-07-23T22:58:37.726Z,99675.72
2018-07-23T23:01:07.854Z,99671.69
2018-07-23T23:03:38.144Z,99668.59
2018-07-23T23:06:08.310Z,99665.69
2018-07-23T23:08:38.177Z,99672.41
2018-07-23T23:11:08.768Z,99672.98
2018-07-23T23:13:38.840Z,99672.67
2018-07-23T23:16:09.461Z,99669.00
2018-07-23T23:18:39.803Z,99664.43
2018-07-23T23:21:10.043Z,99670.57
2018-07-23T23:23:42.207Z,99671.91
2018-07-23T23:26:13.253Z,99676.08
2018-07-23T23:28:43.334Z,99674.16
2018-07-23T23:31:14.417Z,99680.02
2018-07-23T23:33:44.617Z,99675.05
2018-07-23T23:36:14.720Z,99669.27
2018-07-23T23:38:46.809Z,99670.08
2018-07-23T23:41:16.660Z,99673.33
2018-07-23T23:43:46.694Z,99675.21
2018-07-23T23:46:16.822Z,99679.01
2018-07-23T23:48:47.034Z,99668.16
2018-07-23T23:51:17.111Z,99670.08
2018-07-23T23:53:48.207Z,99673.66
2018-07-23T23:56:21.172Z,99663.38
2018-07-23T23:58:51.257Z,99660.69
